Time;durP1;ratioP1;P1;durP2;ratioP2;P2;SDS_P1;SDS_P2;PMS_P1;PMS_P2;Temp;Humidity;BMP_temperature;BMP_pressure;BME280_temperature;BME280_humidity;BME280_pressure;Samples;Min_cycle;Max_cycle;Signal;HPM_P1;HPM_P2
2021/10/11 00:01:02;;;;;;;34.40;21.70;;;;;;;9.57;71.65;101203.50;5014379;28;20064;-62
2021/10/11 00:03:31;;;;;;;31.23;21.20;;;;;;;9.57;71.78;101193.19;5013692;28;20476;-62
2021/10/11 00:05:58;;;;;;;34.50;23.67;;;;;;;9.56;72.19;101202.69;5014044;28;20061;-62
2021/10/11 00:08:26;;;;;;;40.30;25.15;;;;;;;9.65;71.86;101194.53;5013395;28;20065;-62
2021/10/11 00:10:53;;;;;;;39.03;24.40;;;;;;;9.70;71.67;101191.72;5014158;28;20500;-62
2021/10/11 00:13:21;;;;;;;33.00;24.30;;;;;;;9.67;71.58;101204.25;5013444;28;20485;-62
2021/10/11 00:15:48;;;;;;;37.22;24.50;;;;;;;9.71;71.95;101197.00;5014240;28;20053;-62
2021/10/11 00:18:18;;;;;;;41.45;26.83;;;;;;;9.72;71.66;101190.31;5013738;28;20719;-62
2021/10/11 00:20:47;;;;;;;39.35;26.45;;;;;;;9.75;71.56;101198.06;5013778;28;20053;-62
2021/10/11 00:23:15;;;;;;;41.53;27.27;;;;;;;9.67;71.21;101201.47;5012632;28;20407;-62
2021/10/11 00:25:42;;;;;;;44.20;27.17;;;;;;;9.70;71.52;101198.13;5013472;28;20473;-62
2021/10/11 00:28:10;;;;;;;42.20;26.38;;;;;;;9.67;71.16;101195.91;5013886;28;20054;-62
2021/10/11 00:30:37;;;;;;;42.95;26.48;;;;;;;9.64;70.50;101210.41;5013823;28;20472;-62
2021/10/11 00:33:05;;;;;;;44.50;27.95;;;;;;;9.62;70.42;101218.22;5013567;28;20054;-62
2021/10/11 00:35:33;;;;;;;49.20;28.45;;;;;;;9.60;71.12;101209.34;5013190;28;20050;-62
2021/10/11 00:38:02;;;;;;;42.55;28.95;;;;;;;9.61;71.46;101218.50;5013435;28;20050;-62
2021/10/11 00:40:29;;;;;;;36.17;24.88;;;;;;;9.66;71.65;101222.09;5012876;28;20054;-62
2021/10/11 00:42:56;;;;;;;37.53;24.05;;;;;;;9.73;71.37;101214.22;5013482;28;20064;-62
2021/10/11 00:45:24;;;;;;;33.95;22.38;;;;;;;9.83;70.66;101206.94;5013444;28;20053;-62
2021/10/11 00:47:51;;;;;;;35.90;23.08;;;;;;;9.84;70.56;101209.41;5012922;28;20061;-62
2021/10/11 00:50:18;;;;;;;32.92;21.77;;;;;;;9.86;71.57;101209.13;5012449;28;20064;-62
2021/10/11 00:52:47;;;;;;;30.38;20.70;;;;;;;9.88;71.05;101210.47;5013559;28;20054;-62
2021/10/11 00:55:15;;;;;;;30.88;21.55;;;;;;;10.00;71.12;101209.28;5013195;28;20046;-62
2021/10/11 00:57:43;;;;;;;29.52;20.33;;;;;;;10.07;70.80;101205.00;5013152;28;20062;-62
2021/10/11 01:00:11;;;;;;;37.92;23.77;;;;;;;10.11;71.38;101197.75;5012639;28;20416;-62
2021/10/11 01:02:40;;;;;;;36.95;23.65;;;;;;;10.15;71.19;101193.25;5012665;28;20416;-62
2021/10/11 01:05:08;;;;;;;35.92;23.20;;;;;;;10.27;71.25;101200.41;5013022;28;20488;-62
2021/10/11 01:07:36;;;;;;;34.72;22.55;;;;;;;10.36;71.33;101188.31;5012626;28;20054;-62
2021/10/11 01:10:04;;;;;;;35.42;22.35;;;;;;;10.46;71.25;101179.03;5012628;28;20049;-62
2021/10/11 01:12:33;;;;;;;31.65;21.58;;;;;;;10.59;70.53;101185.03;5013021;28;20065;-62
2021/10/11 01:15:01;;;;;;;28.47;21.97;;;;;;;10.66;70.46;101189.09;5012893;28;20403;-62
2021/10/11 01:17:30;;;;;;;27.40;20.73;;;;;;;10.74;70.27;101182.03;5012825;28;20461;-62
2021/10/11 01:20:01;;;;;;;30.17;20.15;;;;;;;10.84;69.97;101183.88;5012310;28;20045;-62
2021/10/11 01:22:36;;;;;;;29.13;20.73;;;;;;;10.92;69.82;101195.19;5012602;28;20062;-62
2021/10/11 01:25:05;;;;;;;31.35;21.75;;;;;;;10.96;69.63;101206.53;5011726;28;20053;-62
2021/10/11 01:27:32;;;;;;;33.83;22.27;;;;;;;11.04;69.50;101205.06;5012586;28;20072;-62
2021/10/11 01:30:00;;;;;;;28.65;21.25;;;;;;;11.09;69.17;101202.22;5012581;28;20054;-62
2021/10/11 01:32:27;;;;;;;33.60;22.65;;;;;;;11.17;68.75;101195.94;5012381;28;20054;-62
2021/10/11 01:34:55;;;;;;;38.97;24.40;;;;;;;11.16;68.99;101191.50;5012295;28;20076;-62
2021/10/11 01:37:23;;;;;;;34.15;23.75;;;;;;;11.20;68.86;101189.78;5012160;28;20061;-61
2021/10/11 01:39:51;;;;;;;33.95;23.50;;;;;;;11.21;68.98;101196.19;5012624;28;20050;-62
2021/10/11 01:42:18;;;;;;;36.08;21.48;;;;;;;11.29;68.93;101192.72;5012177;28;20054;-62
2021/10/11 01:44:45;;;;;;;34.00;24.33;;;;;;;11.31;68.65;101187.66;5012099;28;20419;-62
2021/10/11 01:47:13;;;;;;;33.53;22.83;;;;;;;11.29;69.01;101187.97;5012224;28;20412;-62
2021/10/11 01:49:40;;;;;;;35.83;24.73;;;;;;;11.31;69.17;101187.66;5011996;28;20060;-62
2021/10/11 01:52:07;;;;;;;32.97;23.63;;;;;;;11.36;69.03;101176.44;5012334;28;20057;-62
2021/10/11 01:54:36;;;;;;;33.00;25.00;;;;;;;11.40;68.82;101177.47;5011668;28;20050;-62
2021/10/11 01:57:04;;;;;;;32.28;23.33;;;;;;;11.47;68.63;101171.53;5012314;28;20057;-62
2021/10/11 01:59:31;;;;;;;32.90;24.58;;;;;;;11.53;68.56;101176.72;5012120;28;20054;-62
2021/10/11 02:01:58;;;;;;;38.90;25.13;;;;;;;11.59;68.22;101177.47;5012465;28;20045;-62
2021/10/11 02:04:28;;;;;;;34.10;23.83;;;;;;;11.65;68.29;101173.44;5019776;28;20061;-62
2021/10/11 02:06:56;;;;;;;35.17;23.35;;;;;;;11.60;68.26;101165.16;5031593;28;20056;-62
2021/10/11 02:09:23;;;;;;;35.78;25.83;;;;;;;11.63;68.07;101167.34;5025985;28;20424;-62
2021/10/11 02:11:52;;;;;;;37.90;26.55;;;;;;;11.59;68.34;101163.53;5012097;28;20046;-62
2021/10/11 02:14:19;;;;;;;37.40;26.45;;;;;;;11.63;68.46;101164.53;5010978;28;20054;-61
2021/10/11 02:16:47;;;;;;;37.95;26.58;;;;;;;11.72;68.29;101165.53;5011479;28;20065;-62
2021/10/11 02:19:14;;;;;;;38.78;26.65;;;;;;;11.75;68.03;101161.28;5011054;28;20050;-62
2021/10/11 02:21:42;;;;;;;39.75;27.50;;;;;;;11.68;68.62;101150.53;5012054;28;20060;-62
2021/10/11 02:24:09;;;;;;;35.58;25.42;;;;;;;11.76;68.69;101146.22;5011139;28;20057;-63
2021/10/11 02:26:36;;;;;;;37.13;26.20;;;;;;;11.82;68.49;101147.75;5011662;28;20054;-62
2021/10/11 02:29:05;;;;;;;36.95;25.73;;;;;;;11.92;68.35;101155.16;5012034;28;20058;-63
2021/10/11 02:31:32;;;;;;;35.40;24.27;;;;;;;11.98;68.42;101148.34;5013301;28;20046;-62
2021/10/11 02:34:00;;;;;;;35.40;26.05;;;;;;;12.05;67.99;101148.75;5015311;28;20050;-62
2021/10/11 02:36:27;;;;;;;39.35;25.65;;;;;;;12.07;68.08;101154.06;5015850;28;20061;-62
2021/10/11 02:38:55;;;;;;;39.30;27.85;;;;;;;12.11;68.04;101147.53;5015338;28;20054;-62
2021/10/11 02:41:23;;;;;;;39.13;27.60;;;;;;;12.12;67.74;101151.19;5015733;28;20049;-62
2021/10/11 02:43:50;;;;;;;39.35;26.77;;;;;;;12.19;67.86;101146.81;5015249;28;20056;-62
2021/10/11 02:46:19;;;;;;;38.85;27.50;;;;;;;12.24;67.61;101150.66;5015388;28;20554;-62
2021/10/11 02:48:46;;;;;;;37.05;26.83;;;;;;;12.25;67.38;101143.94;5015200;28;20057;-61
2021/10/11 02:51:13;;;;;;;41.60;27.58;;;;;;;12.24;67.61;101143.13;5016013;28;20056;-62
2021/10/11 02:53:41;;;;;;;40.17;27.90;;;;;;;12.28;67.89;101146.09;5015042;28;20054;-62
2021/10/11 02:56:08;;;;;;;39.45;27.73;;;;;;;12.33;67.95;101143.22;5015480;28;20073;-62
2021/10/11 02:58:35;;;;;;;42.05;28.05;;;;;;;12.37;67.93;101139.50;5015530;28;20079;-62
2021/10/11 03:01:02;;;;;;;39.88;27.30;;;;;;;12.41;68.23;101150.03;5015319;28;20060;-62
2021/10/11 03:03:31;;;;;;;43.47;29.40;;;;;;;12.46;68.31;101145.19;5014687;28;20061;-62
2021/10/11 03:05:59;;;;;;;40.88;28.70;;;;;;;12.48;68.56;101150.47;5015193;28;20054;-62
2021/10/11 03:08:26;;;;;;;38.38;27.73;;;;;;;12.49;68.60;101152.94;5015058;28;20050;-64
2021/10/11 03:10:54;;;;;;;42.78;29.30;;;;;;;12.53;68.23;101148.38;5015022;28;20151;-62
2021/10/11 03:13:21;;;;;;;45.15;30.90;;;;;;;12.50;68.70;101151.81;5014963;28;20597;-62
2021/10/11 03:15:48;;;;;;;47.15;33.75;;;;;;;12.51;68.80;101150.66;5014824;28;20050;-62
2021/10/11 03:18:16;;;;;;;52.10;35.72;;;;;;;12.48;69.48;101142.91;5015183;28;20064;-62
2021/10/11 03:20:44;;;;;;;48.88;33.40;;;;;;;12.44;69.45;101143.84;5014893;28;20084;-62
2021/10/11 03:23:12;;;;;;;48.92;32.13;;;;;;;12.46;69.48;101147.97;5014732;28;20050;-62
2021/10/11 03:25:39;;;;;;;52.42;34.17;;;;;;;12.44;70.34;101143.84;5014187;28;20064;-62
2021/10/11 03:28:09;;;;;;;54.92;33.75;;;;;;;12.46;70.26;101153.56;5014932;28;20057;-62
2021/10/11 03:30:36;;;;;;;51.10;34.22;;;;;;;12.48;70.16;101154.09;5014779;28;20061;-62
2021/10/11 03:33:04;;;;;;;59.17;39.63;;;;;;;12.49;70.36;101160.50;5014486;28;20063;-61
2021/10/11 03:35:31;;;;;;;54.22;34.00;;;;;;;12.50;70.26;101154.59;5014323;28;20057;-60
2021/10/11 03:38:00;;;;;;;54.42;34.83;;;;;;;12.49;70.20;101152.94;5014809;28;20063;-61
2021/10/11 03:40:28;;;;;;;52.60;35.30;;;;;;;12.47;70.56;101144.03;5014826;28;20054;-62
2021/10/11 03:42:55;;;;;;;53.85;37.05;;;;;;;12.39;71.37;101142.81;5014498;28;21007;-62
2021/10/11 03:45:22;;;;;;;65.95;40.72;;;;;;;12.36;71.83;101148.19;5014240;28;20492;-62
2021/10/11 03:47:50;;;;;;;60.88;39.55;;;;;;;12.48;71.63;101148.50;5014184;28;20054;-61
2021/10/11 03:50:17;;;;;;;64.97;40.45;;;;;;;12.38;72.42;101149.53;5014628;28;20440;-62
2021/10/11 03:52:44;;;;;;;60.28;39.22;;;;;;;12.53;72.65;101148.38;5014748;28;20042;-62
2021/10/11 03:55:13;;;;;;;64.85;39.35;;;;;;;12.58;72.69;101155.84;5014314;28;20059;-61
2021/10/11 03:57:40;;;;;;;62.22;39.22;;;;;;;12.62;72.47;101148.50;5014094;28;20058;-62
2021/10/11 04:00:08;;;;;;;65.65;40.70;;;;;;;12.67;72.68;101150.34;5014466;28;20061;-62
2021/10/11 04:02:36;;;;;;;62.17;38.63;;;;;;;12.70;73.08;101149.72;5014150;28;20053;-62
2021/10/11 04:05:04;;;;;;;64.65;38.95;;;;;;;12.77;73.05;101150.97;5013630;28;20054;-61
2021/10/11 04:07:31;;;;;;;58.90;37.75;;;;;;;12.81;72.80;101145.59;5013904;28;20054;-62
2021/10/11 04:10:02;;;;;;;66.93;40.70;;;;;;;12.84;73.40;101139.34;5014296;28;20396;-62
2021/10/11 04:12:37;;;;;;;68.93;39.35;;;;;;;12.84;73.92;101136.56;5014091;28;20412;-62
2021/10/11 04:15:06;;;;;;;65.38;38.30;;;;;;;12.90;74.02;101124.13;5013801;28;20057;-62
2021/10/11 04:17:37;;;;;;;70.47;39.10;;;;;;;12.79;74.75;101125.50;5014255;28;20058;-62
2021/10/11 04:20:06;;;;;;;64.07;37.83;;;;;;;12.87;74.90;101130.34;5013627;28;20057;-62
2021/10/11 04:22:33;;;;;;;65.68;39.10;;;;;;;12.89;75.04;101116.88;5013700;28;20065;-61
2021/10/11 04:25:01;;;;;;;60.13;36.88;;;;;;;12.92;74.99;101112.63;5013560;28;20054;-61
2021/10/11 04:27:28;;;;;;;58.67;34.65;;;;;;;12.96;74.78;101120.06;5013828;28;20049;-61
2021/10/11 04:29:57;;;;;;;57.08;33.63;;;;;;;12.87;75.42;101118.31;5013742;28;20050;-61
2021/10/11 04:32:24;;;;;;;53.27;33.97;;;;;;;12.92;75.28;101115.44;5013902;28;20061;-61
2021/10/11 04:34:52;;;;;;;55.47;32.97;;;;;;;13.04;75.05;101117.66;5013150;28;20507;-61
2021/10/11 04:37:19;;;;;;;53.17;32.80;;;;;;;13.15;74.59;101117.09;5013587;28;20058;-61
2021/10/11 04:39:46;;;;;;;50.53;33.92;;;;;;;13.16;74.64;101127.13;5013543;28;20046;-61
2021/10/11 04:42:14;;;;;;;48.55;32.17;;;;;;;13.20;74.35;101124.53;5013684;28;20054;-61
2021/10/11 04:44:41;;;;;;;54.20;34.13;;;;;;;13.13;73.92;101125.00;5013217;28;20382;-61
2021/10/11 04:47:10;;;;;;;50.72;34.03;;;;;;;13.27;73.77;101124.09;5013432;28;20054;-61
2021/10/11 04:49:37;;;;;;;49.47;32.53;;;;;;;13.30;73.92;101131.91;4995971;28;20057;-61
2021/10/11 04:52:05;;;;;;;46.25;30.20;;;;;;;13.39;73.86;101130.81;4993831;28;20412;-61
2021/10/11 04:54:32;;;;;;;46.17;31.98;;;;;;;13.43;73.64;101133.81;4993433;28;20050;-61
2021/10/11 04:57:00;;;;;;;47.67;32.42;;;;;;;13.51;73.56;101144.25;4993908;28;20058;-61
2021/10/11 04:59:27;;;;;;;50.60;31.95;;;;;;;13.56;73.19;101146.91;5009210;28;20069;-61
2021/10/11 05:01:54;;;;;;;51.38;32.20;;;;;;;13.61;73.45;101148.78;5012752;28;20054;-61
2021/10/11 05:04:23;;;;;;;48.45;32.83;;;;;;;13.65;73.42;101146.16;5012992;28;20072;-61
2021/10/11 05:06:50;;;;;;;48.67;32.85;;;;;;;13.68;73.17;101142.72;5013087;28;20060;-61
2021/10/11 05:09:17;;;;;;;50.35;33.83;;;;;;;13.70;72.71;101146.84;5012281;28;20057;-61
2021/10/11 05:11:45;;;;;;;53.60;32.22;;;;;;;13.75;73.00;101146.75;5007974;28;20045;-61
2021/10/11 05:14:12;;;;;;;56.13;34.17;;;;;;;13.61;72.84;101151.56;5013050;28;20488;-61
2021/10/11 05:16:46;;;;;;;46.15;30.98;;;;;;;13.70;73.09;101151.63;5011623;28;20072;-61
2021/10/11 05:19:14;;;;;;;51.60;31.58;;;;;;;13.75;72.85;101149.53;5013097;28;20058;-61
2021/10/11 05:21:45;;;;;;;47.38;30.83;;;;;;;13.79;72.50;101153.31;5012114;28;20065;-61
2021/10/11 05:24:13;;;;;;;48.40;30.30;;;;;;;13.80;72.66;101156.97;5019485;28;20408;-61
2021/10/11 05:26:40;;;;;;;46.25;31.23;;;;;;;13.76;72.66;101162.38;5011976;28;20058;-61
2021/10/11 05:29:07;;;;;;;46.85;29.95;;;;;;;13.84;72.70;101162.75;5021165;28;20041;-61
2021/10/11 05:31:35;;;;;;;45.78;28.92;;;;;;;13.77;72.83;101147.25;5020361;28;20061;-61
2021/10/11 05:34:02;;;;;;;43.65;29.05;;;;;;;13.85;72.89;101158.81;5019097;28;20050;-61
2021/10/11 05:36:30;;;;;;;43.33;27.35;;;;;;;13.85;72.48;101158.81;5014938;28;20056;-61
2021/10/11 05:38:59;;;;;;;42.88;27.90;;;;;;;13.82;72.63;101160.28;5024070;28;20049;-61
2021/10/11 05:41:26;;;;;;;48.20;28.97;;;;;;;13.88;72.66;101163.75;5022192;28;20053;-61
2021/10/11 05:43:54;;;;;;;45.70;28.67;;;;;;;13.89;72.50;101176.63;5012807;28;20518;-61
2021/10/11 05:46:21;;;;;;;50.42;28.88;;;;;;;13.92;73.15;101170.38;5011478;28;20053;-61
2021/10/11 05:48:49;;;;;;;44.70;27.25;;;;;;;13.86;73.11;101172.50;5011868;28;20054;-61
2021/10/11 05:51:16;;;;;;;43.88;27.05;;;;;;;13.88;73.56;101164.59;5012374;28;20064;-61
2021/10/11 05:53:43;;;;;;;42.80;25.73;;;;;;;13.93;73.37;101177.66;5011588;28;20050;-61
2021/10/11 05:56:12;;;;;;;42.95;26.92;;;;;;;13.86;73.46;101180.06;5012622;28;20053;-61
2021/10/11 05:58:40;;;;;;;40.53;24.57;;;;;;;13.92;73.32;101185.22;5012390;28;20053;-61
2021/10/11 06:01:07;;;;;;;39.03;23.83;;;;;;;13.96;73.61;101180.63;5012382;28;20050;-61
2021/10/11 06:03:34;;;;;;;40.65;23.98;;;;;;;13.99;73.58;101184.78;5011590;28;20054;-61
2021/10/11 06:06:01;;;;;;;39.05;24.30;;;;;;;14.05;73.30;101180.69;5013966;28;20054;-61
2021/10/11 06:08:29;;;;;;;40.03;23.63;;;;;;;14.09;73.38;101169.66;5015920;28;20050;-61
2021/10/11 06:10:56;;;;;;;34.13;23.52;;;;;;;14.01;73.27;101165.66;5015327;28;20046;-61
2021/10/11 06:13:25;;;;;;;36.53;23.75;;;;;;;14.09;73.10;101167.69;5014575;28;20061;-61
2021/10/11 06:15:52;;;;;;;37.22;23.92;;;;;;;14.15;72.66;101172.00;4996481;28;20058;-62
2021/10/11 06:18:20;;;;;;;40.13;24.48;;;;;;;14.14;72.70;101167.53;5013806;28;20065;-61
2021/10/11 06:20:47;;;;;;;36.00;22.83;;;;;;;14.18;72.90;101165.75;5031483;28;20066;-61
2021/10/11 06:23:14;;;;;;;37.92;22.15;;;;;;;14.18;72.92;101167.75;5028947;28;20487;-61
2021/10/11 06:25:45;;;;;;;40.42;23.65;;;;;;;14.07;73.13;101172.78;5026053;28;20056;-61
2021/10/11 06:28:15;;;;;;;37.53;21.95;;;;;;;14.16;72.54;101173.66;5031500;28;20054;-61
2021/10/11 06:30:45;;;;;;;;;;;;;;;14.18;72.57;101179.75;5024757;28;20042;-61
2021/10/11 06:33:13;;;;;;;36.58;23.55;;;;;;;14.07;73.19;101184.00;5016246;28;19926;-61
2021/10/11 06:35:40;;;;;;;42.58;23.98;;;;;;;14.23;72.33;101180.78;5018634;28;20065;-61
2021/10/11 06:38:08;;;;;;;37.83;22.27;;;;;;;14.27;72.27;101190.19;5035245;28;20072;-61
2021/10/11 06:40:35;;;;;;;36.58;22.48;;;;;;;14.27;72.36;101188.22;5022464;28;20050;-61
2021/10/11 06:43:04;;;;;;;37.55;22.10;;;;;;;14.37;72.15;101184.31;5016949;28;20069;-61
2021/10/11 06:45:31;;;;;;;33.40;21.98;;;;;;;14.25;72.73;101186.88;5026624;28;20058;-61
2021/10/11 06:48:00;;;;;;;37.45;22.35;;;;;;;14.34;72.34;101193.34;5015450;28;20054;-61
2021/10/11 06:50:28;;;;;;;37.47;21.88;;;;;;;14.42;72.04;101181.34;5021471;28;20081;-60
2021/10/11 06:52:55;;;;;;;34.03;21.58;;;;;;;14.40;72.03;101175.25;5010467;28;20097;-60
2021/10/11 06:55:22;;;;;;;34.72;20.48;;;;;;;14.53;71.67;101182.72;5004285;28;20058;-61
2021/10/11 06:57:50;;;;;;;34.75;21.95;;;;;;;14.61;71.39;101187.59;5009026;28;20392;-60
2021/10/11 07:00:17;;;;;;;32.08;21.13;;;;;;;14.67;71.44;101195.84;5006090;28;20046;-60
2021/10/11 07:02:45;;;;;;;31.40;21.08;;;;;;;14.72;70.84;101187.25;5012558;28;20053;-60
2021/10/11 07:05:15;;;;;;;28.67;20.08;;;;;;;14.80;70.96;101190.13;5022686;28;20045;-60
2021/10/11 07:07:44;;;;;;;30.52;18.05;;;;;;;14.87;70.74;101197.22;5022847;28;20057;-60
2021/10/11 07:10:12;;;;;;;30.48;18.67;;;;;;;14.91;70.13;101201.84;5027109;28;20495;-59
2021/10/11 07:12:39;;;;;;;30.73;19.52;;;;;;;14.96;70.11;101203.69;5029527;28;20050;-60
2021/10/11 07:15:08;;;;;;;33.97;18.63;;;;;;;14.98;70.01;101219.03;5011719;28;20053;-60
2021/10/11 07:17:35;;;;;;;34.03;18.98;;;;;;;14.96;69.99;101221.31;5022979;28;20053;-60
2021/10/11 07:20:02;;;;;;;30.83;18.05;;;;;;;15.15;69.56;101217.41;5013635;28;20054;-61
2021/10/11 07:22:31;;;;;;;30.98;19.50;;;;;;;15.27;69.09;101214.81;5027386;28;20065;-60
2021/10/11 07:24:58;;;;;;;31.70;19.23;;;;;;;15.31;69.02;101221.41;5011305;28;20061;-60
2021/10/11 07:27:26;;;;;;;30.13;18.33;;;;;;;15.42;68.55;101228.34;5024132;28;20815;-60
2021/10/11 07:29:53;;;;;;;31.55;18.83;;;;;;;15.46;68.54;101227.72;5024908;28;20422;-61
2021/10/11 07:32:20;;;;;;;27.08;18.02;;;;;;;15.41;68.56;101223.06;5028494;28;21265;-60
2021/10/11 07:34:48;;;;;;;29.05;17.20;;;;;;;15.56;68.09;101218.94;5021876;28;20543;-60
2021/10/11 07:37:15;;;;;;;28.17;17.38;;;;;;;15.65;67.93;101225.38;5018963;28;20065;-60
2021/10/11 07:39:44;;;;;;;23.98;15.40;;;;;;;15.76;67.79;101209.88;5012757;28;20443;-60
2021/10/11 07:42:11;;;;;;;23.00;14.85;;;;;;;15.75;67.78;101216.66;5024154;28;20373;-60
2021/10/11 07:44:39;;;;;;;23.63;14.48;;;;;;;15.81;67.71;101229.38;5016050;28;20529;-60
2021/10/11 07:47:06;;;;;;;23.58;12.77;;;;;;;15.83;67.86;101235.50;5028937;28;20050;-60
2021/10/11 07:49:33;;;;;;;22.95;12.00;;;;;;;15.88;67.18;101239.31;5010583;28;20169;-60
2021/10/11 07:52:01;;;;;;;21.27;10.90;;;;;;;15.96;66.55;101246.91;5015657;28;20488;-59
2021/10/11 07:54:28;;;;;;;22.55;11.82;;;;;;;16.00;66.35;101245.91;5011861;28;20455;-60
2021/10/11 07:56:58;;;;;;;19.25;9.73;;;;;;;16.06;66.07;101252.16;5024279;28;20049;-60
2021/10/11 07:59:27;;;;;;;21.92;11.20;;;;;;;16.16;65.12;101251.81;5014322;28;20065;-59
2021/10/11 08:01:54;;;;;;;14.88;8.85;;;;;;;16.27;64.53;101252.28;5029036;28;20057;-60
2021/10/11 08:04:22;;;;;;;14.40;8.10;;;;;;;16.39;64.29;101248.78;5017015;28;20046;-60
2021/10/11 08:06:49;;;;;;;13.85;8.55;;;;;;;16.54;63.52;101251.03;5001738;28;20058;-60
2021/10/11 08:09:16;;;;;;;16.42;8.60;;;;;;;16.62;62.96;101255.81;5010030;28;20057;-60
2021/10/11 08:11:44;;;;;;;16.13;8.52;;;;;;;16.62;63.67;101263.44;5015775;28;20076;-60
2021/10/11 08:14:13;;;;;;;14.15;8.25;;;;;;;16.72;62.83;101259.44;5012130;28;20058;-60
2021/10/11 08:16:41;;;;;;;13.05;7.85;;;;;;;16.75;63.04;101255.94;5011148;28;20072;-60
2021/10/11 08:19:08;;;;;;;16.77;8.38;;;;;;;16.94;62.26;101252.75;5025228;28;20068;-60
2021/10/11 08:21:36;;;;;;;12.88;7.10;;;;;;;17.18;60.63;101254.94;5019357;28;20493;-60
2021/10/11 08:24:05;;;;;;;14.68;8.23;;;;;;;17.11;61.84;101257.44;5011128;28;20408;-60
2021/10/11 08:26:36;;;;;;;14.30;7.22;;;;;;;17.29;60.43;101264.63;5012313;28;20053;-60
2021/10/11 08:29:04;;;;;;;11.45;6.93;;;;;;;17.38;59.40;101267.41;5016888;28;20072;-60
2021/10/11 08:31:33;;;;;;;13.82;6.93;;;;;;;17.50;58.84;101270.31;5022828;28;20408;-60
2021/10/11 08:34:01;;;;;;;11.40;6.63;;;;;;;17.76;57.72;101272.91;5023804;28;20061;-60
2021/10/11 08:36:28;;;;;;;11.80;6.75;;;;;;;18.13;57.69;101264.66;5011628;28;20134;-60
2021/10/11 08:38:57;;;;;;;13.35;6.88;;;;;;;18.21;57.58;101252.47;5029314;28;20057;-60
2021/10/11 08:41:25;;;;;;;12.13;6.45;;;;;;;18.39;56.19;101249.47;5016434;28;20061;-60
2021/10/11 08:43:52;;;;;;;12.90;5.95;;;;;;;18.59;56.35;101259.03;5011002;28;20057;-59
2021/10/11 08:46:20;;;;;;;12.55;5.53;;;;;;;18.64;55.44;101251.16;5012627;28;20057;-60
2021/10/11 08:48:48;;;;;;;13.23;5.72;;;;;;;18.58;55.39;101258.22;5011198;28;20073;-60
2021/10/11 08:51:16;;;;;;;11.53;5.90;;;;;;;18.66;55.85;101262.09;5012410;28;20050;-60
2021/10/11 08:53:43;;;;;;;13.48;5.32;;;;;;;18.60;55.66;101267.13;5027641;28;20060;-60
2021/10/11 08:56:12;;;;;;;11.18;5.45;;;;;;;18.34;55.70;101260.97;5027895;28;20058;-60
2021/10/11 08:58:43;;;;;;;14.07;4.77;;;;;;;18.15;55.62;101248.22;5019780;28;20057;-60
2021/10/11 09:01:10;;;;;;;8.38;4.18;;;;;;;18.04;55.41;101261.13;5005780;28;20053;-60
2021/10/11 09:03:38;;;;;;;8.05;3.97;;;;;;;17.94;55.70;101258.72;5022741;28;20050;-60
2021/10/11 09:06:09;;;;;;;8.32;3.97;;;;;;;17.78;55.87;101250.84;5024543;28;20069;-60
2021/10/11 09:08:37;;;;;;;12.13;4.20;;;;;;;17.64;56.78;101256.78;5025138;28;20060;-60
2021/10/11 09:11:06;;;;;;;10.15;3.65;;;;;;;17.61;57.05;101262.25;5022091;28;20511;-60
2021/10/11 09:13:38;;;;;;;10.43;4.40;;;;;;;17.60;56.54;101255.81;5012827;28;20381;-60
2021/10/11 09:16:09;;;;;;;8.25;3.78;;;;;;;17.62;56.02;101255.47;5011551;28;20064;-61
2021/10/11 09:18:38;;;;;;;9.90;3.53;;;;;;;17.40;56.90;101263.06;5011671;28;20066;-59
2021/10/11 09:21:07;;;;;;;;;;;;;;;17.33;57.11;101265.59;5013205;28;20046;-60
2021/10/11 09:23:35;;;;;;;10.27;3.20;;;;;;;17.53;57.33;101257.50;5020904;28;19929;-61
2021/10/11 09:26:15;;;;;;;10.40;3.17;;;;;;;17.77;56.20;101274.56;5028551;28;20050;-60
2021/10/11 09:28:50;;;;;;;10.98;3.70;;;;;;;17.76;56.34;101272.91;5030178;28;20487;-60
2021/10/11 09:31:17;;;;;;;10.57;3.28;;;;;;;17.70;57.15;101271.50;5030077;28;20049;-60
2021/10/11 09:33:45;;;;;;;11.75;3.92;;;;;;;17.62;57.45;101266.75;5029144;28;20053;-60
2021/10/11 09:36:20;;;;;;;10.15;3.83;;;;;;;17.43;58.54;101284.13;5023196;28;20447;-61
2021/10/11 09:39:00;;;;;;;8.27;3.58;;;;;;;17.20;59.51;101275.13;5031071;28;20050;-61
2021/10/11 09:41:28;;;;;;;7.28;2.85;;;;;;;17.21;60.20;101271.97;5024643;28;20058;-60
2021/10/11 09:43:56;;;;;;;11.63;3.38;;;;;;;17.17;60.83;101261.72;5014215;28;20403;-60
2021/10/11 09:46:26;;;;;;;10.45;3.58;;;;;;;17.44;60.05;101261.22;5013088;28;20404;-61
2021/10/11 09:48:55;;;;;;;7.20;2.70;;;;;;;17.56;57.63;101262.47;5011759;28;20050;-60
2021/10/11 09:51:25;;;;;;;9.40;3.10;;;;;;;17.61;57.44;101262.25;5013930;28;20045;-60
2021/10/11 09:53:54;;;;;;;7.95;2.50;;;;;;;17.68;57.51;101258.91;5026213;28;20053;-60
2021/10/11 09:56:26;;;;;;;7.75;2.75;;;;;;;17.64;58.06;101261.59;5012164;28;20058;-60
2021/10/11 09:58:54;;;;;;;8.18;2.20;;;;;;;17.79;57.05;101260.97;4998490;28;20057;-60
2021/10/11 10:01:22;;;;;;;7.82;2.05;;;;;;;17.92;56.04;101263.88;5012825;28;20514;-60
2021/10/11 10:03:51;;;;;;;8.35;1.95;;;;;;;18.05;56.00;101263.56;5021946;28;20074;-60
2021/10/11 10:06:22;;;;;;;7.77;1.80;;;;;;;18.22;55.58;101262.56;5012192;28;20511;-60
2021/10/11 10:08:52;;;;;;;6.03;2.35;;;;;;;18.50;54.88;101261.97;5026253;28;20488;-60
2021/10/11 10:11:20;;;;;;;5.47;2.10;;;;;;;18.87;53.81;101262.03;5016439;28;20073;-60
2021/10/11 10:13:49;;;;;;;6.82;2.15;;;;;;;19.06;52.16;101255.81;5015887;28;20053;-61
2021/10/11 10:16:19;;;;;;;7.80;2.10;;;;;;;19.35;52.39;101256.75;5020601;28;20050;-61
2021/10/11 10:18:47;;;;;;;4.50;2.00;;;;;;;19.89;51.20;101256.41;5010906;28;20054;-61
2021/10/11 10:21:18;;;;;;;7.30;2.10;;;;;;;20.31;48.91;101246.69;5010885;28;20057;-61
2021/10/11 10:23:57;;;;;;;7.18;2.58;;;;;;;20.26;49.28;101245.75;5014022;28;20506;-61
2021/10/11 10:26:33;;;;;;;8.10;2.38;;;;;;;20.04;49.61;101251.97;5007981;28;20049;-61
2021/10/11 10:29:11;;;;;;;6.57;2.25;;;;;;;20.13;49.47;101252.63;5013467;28;20401;-61
2021/10/11 10:31:39;;;;;;;6.63;2.50;;;;;;;20.09;49.58;101246.06;5010768;28;20049;-62
2021/10/11 10:34:15;;;;;;;8.98;2.90;;;;;;;20.38;48.99;101246.84;5011935;28;20054;-61
2021/10/11 10:36:44;;;;;;;8.85;3.42;;;;;;;21.36;46.75;101243.28;5010592;28;20062;-61
2021/10/11 10:39:17;;;;;;;5.72;2.25;;;;;;;22.43;44.32;101241.09;5008878;28;20046;-61
2021/10/11 10:41:55;;;;;;;6.85;3.00;;;;;;;24.40;39.81;101231.78;5007995;28;20050;-61
2021/10/11 10:44:23;;;;;;;7.53;2.72;;;;;;;27.26;34.19;101222.97;5011940;28;20484;-61
2021/10/11 10:46:55;;;;;;;4.18;1.70;;;;;;;28.50;32.26;101234.34;5009624;28;20045;-62
2021/10/11 10:49:33;;;;;;;5.72;2.22;;;;;;;30.58;29.21;101225.53;5009717;28;20058;-61
2021/10/11 10:52:02;;;;;;;4.38;2.20;;;;;;;29.74;29.83;101227.91;5021621;28;20419;-61
2021/10/11 10:54:37;;;;;;;5.78;1.80;;;;;;;29.05;29.26;101229.81;5017096;28;20404;-61
2021/10/11 10:57:06;;;;;;;5.70;1.58;;;;;;;27.02;32.67;101228.25;5019075;28;20050;-62
2021/10/11 10:59:34;;;;;;;;;;;;;;;26.31;33.70;101246.97;5015445;28;20058;-62
2021/10/11 11:02:05;;;;;;;6.68;2.42;;;;;;;24.98;35.85;101242.53;5013349;28;19928;-61
2021/10/11 11:04:33;;;;;;;8.30;2.22;;;;;;;23.79;37.66;101251.00;5028924;28;20057;-62
2021/10/11 11:07:04;;;;;;;8.27;2.33;;;;;;;23.26;38.91;101240.50;5030611;28;20041;-62
2021/10/11 11:09:43;;;;;;;7.38;1.85;;;;;;;23.08;39.94;101241.03;5034368;28;20129;-62
2021/10/11 11:12:12;;;;;;;8.63;2.80;;;;;;;25.04;36.59;101243.00;5013718;28;20050;-61
2021/10/11 11:14:43;;;;;;;7.05;2.42;;;;;;;25.37;34.80;101242.03;5012053;28;20046;-61
2021/10/11 11:17:13;;;;;;;6.57;2.42;;;;;;;26.01;34.88;101240.75;5015797;28;20065;-62
2021/10/11 11:19:43;;;;;;;7.15;2.55;;;;;;;26.85;33.53;101227.06;5009865;28;20053;-61